Pelion, South Carolina
Current Conditions -  °F | °C
As of 8:56 AM on Friday 19 Dec 2014 (Local Time) from KCAE Reporting Station
Light Fog Light Fog  
Wind Chill: 40°   Ceiling: 22000
Heat Index: 40°   Visibility: 8mi
Dew Point: 36°   Wind: 0mph
Humidity: 86%   Direction: NA
Pressure: 30.16"   Gusts: NA
Location:  33.76°N, 81.24°W
Report Text: KCAE 191356Z 00000KT 8SM BCFG FEW150 BKN220 04/02 A3016 RMK AO2 SLP213 T00440022
Loading
Personal Weather Stations






























Interactive Weather Map New forecast layout! Learn more

10-Day Weather Forecast

Advertisements
Track Severe Weather on mobile